sensor_id;sensor_type;location;lat;lon;timestamp;P1;durP1;ratioP1;P2;durP2;ratioP2
17844;SDS011;9047;53.486;10.218;2024-02-23T00:00:26;4.05;;;1.10;;
17844;SDS011;9047;53.486;10.218;2024-02-23T00:02:53;3.03;;;1.20;;
17844;SDS011;9047;53.486;10.218;2024-02-23T00:05:21;3.45;;;1.10;;
17844;SDS011;9047;53.486;10.218;2024-02-23T00:07:48;1.23;;;0.98;;
17844;SDS011;9047;53.486;10.218;2024-02-23T00:10:16;3.25;;;1.02;;
17844;SDS011;9047;53.486;10.218;2024-02-23T00:12:43;2.15;;;1.00;;
17844;SDS011;9047;53.486;10.218;2024-02-23T00:15:10;2.53;;;1.08;;
17844;SDS011;9047;53.486;10.218;2024-02-23T00:17:38;2.97;;;0.90;;
17844;SDS011;9047;53.486;10.218;2024-02-23T00:20:05;2.25;;;1.02;;
17844;SDS011;9047;53.486;10.218;2024-02-23T00:22:35;3.58;;;1.33;;
17844;SDS011;9047;53.486;10.218;2024-02-23T00:25:02;2.15;;;0.90;;
17844;SDS011;9047;53.486;10.218;2024-02-23T00:27:31;1.73;;;0.80;;
17844;SDS011;9047;53.486;10.218;2024-02-23T00:29:59;1.55;;;0.80;;
17844;SDS011;9047;53.486;10.218;2024-02-23T00:32:26;3.95;;;1.00;;
17844;SDS011;9047;53.486;10.218;2024-02-23T00:34:53;1.60;;;0.88;;
17844;SDS011;9047;53.486;10.218;2024-02-23T00:37:20;2.13;;;0.80;;
17844;SDS011;9047;53.486;10.218;2024-02-23T00:39:46;2.05;;;0.80;;
17844;SDS011;9047;53.486;10.218;2024-02-23T00:42:13;4.05;;;1.15;;
17844;SDS011;9047;53.486;10.218;2024-02-23T00:44:42;1.20;;;0.88;;
17844;SDS011;9047;53.486;10.218;2024-02-23T00:47:08;1.50;;;0.80;;
17844;SDS011;9047;53.486;10.218;2024-02-23T00:49:35;3.47;;;0.90;;
17844;SDS011;9047;53.486;10.218;2024-02-23T00:52:04;2.85;;;1.20;;
17844;SDS011;9047;53.486;10.218;2024-02-23T00:54:31;1.23;;;0.73;;
17844;SDS011;9047;53.486;10.218;2024-02-23T00:56:58;3.38;;;1.10;;
17844;SDS011;9047;53.486;10.218;2024-02-23T00:59:25;2.83;;;1.08;;
17844;SDS011;9047;53.486;10.218;2024-02-23T01:01:53;3.55;;;1.17;;
17844;SDS011;9047;53.486;10.218;2024-02-23T01:04:20;1.48;;;0.90;;
17844;SDS011;9047;53.486;10.218;2024-02-23T01:06:47;3.00;;;1.05;;
17844;SDS011;9047;53.486;10.218;2024-02-23T01:09:14;1.85;;;1.00;;
17844;SDS011;9047;53.486;10.218;2024-02-23T01:11:41;2.95;;;1.05;;
17844;SDS011;9047;53.486;10.218;2024-02-23T01:14:08;2.60;;;0.90;;
17844;SDS011;9047;53.486;10.218;2024-02-23T01:16:35;3.38;;;1.00;;
17844;SDS011;9047;53.486;10.218;2024-02-23T01:19:03;0.65;;;0.52;;
17844;SDS011;9047;53.486;10.218;2024-02-23T01:21:30;2.00;;;0.60;;
17844;SDS011;9047;53.486;10.218;2024-02-23T01:23:58;0.60;;;0.60;;
17844;SDS011;9047;53.486;10.218;2024-02-23T01:26:25;1.00;;;0.47;;
17844;SDS011;9047;53.486;10.218;2024-02-23T01:28:53;0.95;;;0.50;;
17844;SDS011;9047;53.486;10.218;2024-02-23T01:31:20;0.60;;;0.60;;
17844;SDS011;9047;53.486;10.218;2024-02-23T01:33:47;2.15;;;0.50;;
17844;SDS011;9047;53.486;10.218;2024-02-23T01:36:16;1.23;;;0.60;;
17844;SDS011;9047;53.486;10.218;2024-02-23T01:38:43;0.77;;;0.65;;
17844;SDS011;9047;53.486;10.218;2024-02-23T01:41:09;1.55;;;0.77;;
17844;SDS011;9047;53.486;10.218;2024-02-23T01:43:37;0.90;;;0.70;;
17844;SDS011;9047;53.486;10.218;2024-02-23T01:46:06;0.80;;;0.60;;
17844;SDS011;9047;53.486;10.218;2024-02-23T01:48:33;2.05;;;0.75;;
17844;SDS011;9047;53.486;10.218;2024-02-23T01:50:59;1.08;;;0.77;;
17844;SDS011;9047;53.486;10.218;2024-02-23T01:53:28;2.45;;;0.90;;
17844;SDS011;9047;53.486;10.218;2024-02-23T01:55:55;1.85;;;0.70;;
17844;SDS011;9047;53.486;10.218;2024-02-23T01:58:24;0.70;;;0.70;;
17844;SDS011;9047;53.486;10.218;2024-02-23T02:00:51;1.05;;;0.70;;
17844;SDS011;9047;53.486;10.218;2024-02-23T02:03:18;1.27;;;0.93;;
17844;SDS011;9047;53.486;10.218;2024-02-23T02:05:45;1.70;;;1.00;;
17844;SDS011;9047;53.486;10.218;2024-02-23T02:08:15;2.25;;;0.90;;
17844;SDS011;9047;53.486;10.218;2024-02-23T02:10:44;1.10;;;0.90;;
17844;SDS011;9047;53.486;10.218;2024-02-23T02:13:12;1.25;;;0.95;;
17844;SDS011;9047;53.486;10.218;2024-02-23T02:15:40;1.73;;;1.00;;
17844;SDS011;9047;53.486;10.218;2024-02-23T02:18:09;1.55;;;0.95;;
17844;SDS011;9047;53.486;10.218;2024-02-23T02:20:36;1.38;;;0.95;;
17844;SDS011;9047;53.486;10.218;2024-02-23T02:23:05;0.90;;;0.73;;
17844;SDS011;9047;53.486;10.218;2024-02-23T02:25:33;1.25;;;0.65;;
17844;SDS011;9047;53.486;10.218;2024-02-23T02:28:05;0.50;;;0.50;;
17844;SDS011;9047;53.486;10.218;2024-02-23T02:30:32;0.60;;;0.50;;
17844;SDS011;9047;53.486;10.218;2024-02-23T02:32:59;0.93;;;0.57;;
17844;SDS011;9047;53.486;10.218;2024-02-23T02:35:26;0.50;;;0.50;;
17844;SDS011;9047;53.486;10.218;2024-02-23T02:37:53;1.63;;;0.60;;
17844;SDS011;9047;53.486;10.218;2024-02-23T02:40:20;0.60;;;0.60;;
17844;SDS011;9047;53.486;10.218;2024-02-23T02:42:47;0.68;;;0.60;;
17844;SDS011;9047;53.486;10.218;2024-02-23T02:45:15;1.38;;;0.70;;
17844;SDS011;9047;53.486;10.218;2024-02-23T02:47:42;2.45;;;0.98;;
17844;SDS011;9047;53.486;10.218;2024-02-23T02:50:09;0.77;;;0.63;;
17844;SDS011;9047;53.486;10.218;2024-02-23T02:52:36;0.70;;;0.70;;
17844;SDS011;9047;53.486;10.218;2024-02-23T02:55:03;0.60;;;0.60;;
17844;SDS011;9047;53.486;10.218;2024-02-23T02:57:30;0.70;;;0.70;;
17844;SDS011;9047;53.486;10.218;2024-02-23T02:59:57;0.85;;;0.85;;
17844;SDS011;9047;53.486;10.218;2024-02-23T03:02:25;0.77;;;0.77;;
17844;SDS011;9047;53.486;10.218;2024-02-23T03:04:52;1.10;;;0.98;;
17844;SDS011;9047;53.486;10.218;2024-02-23T03:07:20;0.90;;;0.90;;
17844;SDS011;9047;53.486;10.218;2024-02-23T03:09:47;2.58;;;1.00;;
17844;SDS011;9047;53.486;10.218;2024-02-23T03:12:14;1.55;;;0.90;;
17844;SDS011;9047;53.486;10.218;2024-02-23T03:14:41;0.95;;;0.88;;
17844;SDS011;9047;53.486;10.218;2024-02-23T03:17:08;2.15;;;0.80;;
17844;SDS011;9047;53.486;10.218;2024-02-23T03:19:36;0.90;;;0.90;;
17844;SDS011;9047;53.486;10.218;2024-02-23T03:22:04;0.95;;;0.90;;
17844;SDS011;9047;53.486;10.218;2024-02-23T03:24:31;2.08;;;1.00;;
17844;SDS011;9047;53.486;10.218;2024-02-23T03:26:57;0.93;;;0.88;;
17844;SDS011;9047;53.486;10.218;2024-02-23T03:29:24;1.27;;;0.88;;
17844;SDS011;9047;53.486;10.218;2024-02-23T03:31:54;0.77;;;0.77;;
17844;SDS011;9047;53.486;10.218;2024-02-23T03:34:21;1.23;;;0.90;;
17844;SDS011;9047;53.486;10.218;2024-02-23T03:36:49;1.77;;;0.90;;
17844;SDS011;9047;53.486;10.218;2024-02-23T03:39:16;1.33;;;0.85;;
17844;SDS011;9047;53.486;10.218;2024-02-23T03:41:42;1.90;;;0.65;;
17844;SDS011;9047;53.486;10.218;2024-02-23T03:44:09;1.65;;;0.70;;
17844;SDS011;9047;53.486;10.218;2024-02-23T03:46:36;0.85;;;0.60;;
17844;SDS011;9047;53.486;10.218;2024-02-23T03:49:03;0.50;;;0.50;;
17844;SDS011;9047;53.486;10.218;2024-02-23T03:51:29;0.90;;;0.50;;
17844;SDS011;9047;53.486;10.218;2024-02-23T03:53:59;0.68;;;0.68;;
17844;SDS011;9047;53.486;10.218;2024-02-23T03:56:26;0.47;;;0.47;;
17844;SDS011;9047;53.486;10.218;2024-02-23T03:58:53;0.40;;;0.40;;
17844;SDS011;9047;53.486;10.218;2024-02-23T04:01:20;0.52;;;0.52;;
17844;SDS011;9047;53.486;10.218;2024-02-23T04:03:47;0.55;;;0.50;;
17844;SDS011;9047;53.486;10.218;2024-02-23T04:06:13;0.73;;;0.70;;
17844;SDS011;9047;53.486;10.218;2024-02-23T04:08:40;0.93;;;0.70;;
17844;SDS011;9047;53.486;10.218;2024-02-23T04:11:11;1.05;;;0.70;;
17844;SDS011;9047;53.486;10.218;2024-02-23T04:13:39;0.73;;;0.73;;
17844;SDS011;9047;53.486;10.218;2024-02-23T04:16:05;0.70;;;0.70;;
17844;SDS011;9047;53.486;10.218;2024-02-23T04:18:32;1.23;;;0.75;;
17844;SDS011;9047;53.486;10.218;2024-02-23T04:20:59;1.08;;;0.68;;
17844;SDS011;9047;53.486;10.218;2024-02-23T04:23:26;1.02;;;0.80;;
17844;SDS011;9047;53.486;10.218;2024-02-23T04:25:53;0.63;;;0.63;;
17844;SDS011;9047;53.486;10.218;2024-02-23T04:28:21;0.70;;;0.70;;
17844;SDS011;9047;53.486;10.218;2024-02-23T04:30:49;1.95;;;0.80;;
17844;SDS011;9047;53.486;10.218;2024-02-23T04:33:17;0.70;;;0.70;;
17844;SDS011;9047;53.486;10.218;2024-02-23T04:35:44;0.60;;;0.60;;
17844;SDS011;9047;53.486;10.218;2024-02-23T04:38:11;1.45;;;0.70;;
17844;SDS011;9047;53.486;10.218;2024-02-23T04:40:37;0.68;;;0.60;;
17844;SDS011;9047;53.486;10.218;2024-02-23T04:43:05;0.95;;;0.80;;
17844;SDS011;9047;53.486;10.218;2024-02-23T04:45:33;1.35;;;0.75;;
17844;SDS011;9047;53.486;10.218;2024-02-23T04:48:00;3.70;;;0.98;;
17844;SDS011;9047;53.486;10.218;2024-02-23T04:50:27;1.80;;;0.70;;
17844;SDS011;9047;53.486;10.218;2024-02-23T04:52:54;4.22;;;1.20;;
17844;SDS011;9047;53.486;10.218;2024-02-23T04:55:21;2.50;;;0.82;;
17844;SDS011;9047;53.486;10.218;2024-02-23T04:57:48;2.45;;;1.08;;
17844;SDS011;9047;53.486;10.218;2024-02-23T05:00:14;1.20;;;0.85;;
17844;SDS011;9047;53.486;10.218;2024-02-23T05:02:43;2.78;;;1.00;;
17844;SDS011;9047;53.486;10.218;2024-02-23T05:05:11;2.33;;;1.20;;
17844;SDS011;9047;53.486;10.218;2024-02-23T05:07:38;2.92;;;1.15;;
17844;SDS011;9047;53.486;10.218;2024-02-23T05:10:06;3.65;;;1.30;;
17844;SDS011;9047;53.486;10.218;2024-02-23T05:12:33;4.57;;;1.65;;
17844;SDS011;9047;53.486;10.218;2024-02-23T05:15:00;4.85;;;1.40;;
17844;SDS011;9047;53.486;10.218;2024-02-23T05:17:28;3.08;;;1.40;;
17844;SDS011;9047;53.486;10.218;2024-02-23T05:19:58;2.65;;;1.35;;
17844;SDS011;9047;53.486;10.218;2024-02-23T05:22:25;3.53;;;1.70;;
17844;SDS011;9047;53.486;10.218;2024-02-23T05:24:52;4.22;;;1.70;;
17844;SDS011;9047;53.486;10.218;2024-02-23T05:27:19;5.15;;;2.03;;
17844;SDS011;9047;53.486;10.218;2024-02-23T05:29:45;3.45;;;1.77;;
17844;SDS011;9047;53.486;10.218;2024-02-23T05:32:12;4.18;;;1.40;;
17844;SDS011;9047;53.486;10.218;2024-02-23T05:34:42;4.20;;;1.50;;
17844;SDS011;9047;53.486;10.218;2024-02-23T05:37:10;3.03;;;1.45;;
17844;SDS011;9047;53.486;10.218;2024-02-23T05:39:40;6.25;;;1.63;;
17844;SDS011;9047;53.486;10.218;2024-02-23T05:42:07;5.32;;;1.80;;
17844;SDS011;9047;53.486;10.218;2024-02-23T05:44:39;4.30;;;1.60;;
17844;SDS011;9047;53.486;10.218;2024-02-23T05:47:11;5.63;;;2.20;;
17844;SDS011;9047;53.486;10.218;2024-02-23T05:49:43;3.00;;;1.60;;
17844;SDS011;9047;53.486;10.218;2024-02-23T05:52:16;4.82;;;1.60;;
17844;SDS011;9047;53.486;10.218;2024-02-23T05:54:43;4.38;;;1.73;;
17844;SDS011;9047;53.486;10.218;2024-02-23T05:57:10;2.97;;;1.60;;
17844;SDS011;9047;53.486;10.218;2024-02-23T05:59:37;3.72;;;1.50;;
17844;SDS011;9047;53.486;10.218;2024-02-23T06:02:04;2.80;;;1.60;;
17844;SDS011;9047;53.486;10.218;2024-02-23T06:04:31;2.92;;;1.42;;
17844;SDS011;9047;53.486;10.218;2024-02-23T06:06:58;3.40;;;1.40;;
17844;SDS011;9047;53.486;10.218;2024-02-23T06:09:26;2.30;;;1.25;;
17844;SDS011;9047;53.486;10.218;2024-02-23T06:11:53;2.35;;;1.40;;
17844;SDS011;9047;53.486;10.218;2024-02-23T06:14:21;4.90;;;1.35;;
17844;SDS011;9047;53.486;10.218;2024-02-23T06:16:49;2.05;;;1.10;;
17844;SDS011;9047;53.486;10.218;2024-02-23T06:19:20;3.00;;;1.30;;
17844;SDS011;9047;53.486;10.218;2024-02-23T06:21:50;5.93;;;1.80;;
17844;SDS011;9047;53.486;10.218;2024-02-23T06:24:19;3.13;;;1.40;;
17844;SDS011;9047;53.486;10.218;2024-02-23T06:26:48;3.35;;;1.33;;
17844;SDS011;9047;53.486;10.218;2024-02-23T06:29:16;2.53;;;1.30;;
17844;SDS011;9047;53.486;10.218;2024-02-23T06:31:53;2.03;;;1.40;;
17844;SDS011;9047;53.486;10.218;2024-02-23T06:34:24;2.83;;;1.33;;
17844;SDS011;9047;53.486;10.218;2024-02-23T06:36:51;2.85;;;1.40;;
17844;SDS011;9047;53.486;10.218;2024-02-23T06:39:21;2.15;;;1.40;;
17844;SDS011;9047;53.486;10.218;2024-02-23T06:41:53;3.83;;;1.90;;
17844;SDS011;9047;53.486;10.218;2024-02-23T06:44:20;5.63;;;1.70;;
17844;SDS011;9047;53.486;10.218;2024-02-23T06:46:47;3.17;;;1.77;;
17844;SDS011;9047;53.486;10.218;2024-02-23T06:49:17;3.70;;;2.00;;
17844;SDS011;9047;53.486;10.218;2024-02-23T06:51:44;4.38;;;1.90;;
17844;SDS011;9047;53.486;10.218;2024-02-23T06:54:13;4.07;;;1.90;;
17844;SDS011;9047;53.486;10.218;2024-02-23T06:56:41;4.10;;;2.00;;
17844;SDS011;9047;53.486;10.218;2024-02-23T06:59:10;2.22;;;1.70;;
17844;SDS011;9047;53.486;10.218;2024-02-23T07:01:49;3.35;;;2.20;;
17844;SDS011;9047;53.486;10.218;2024-02-23T07:04:16;4.57;;;2.28;;
17844;SDS011;9047;53.486;10.218;2024-02-23T07:06:45;4.65;;;1.90;;
17844;SDS011;9047;53.486;10.218;2024-02-23T07:09:13;4.07;;;2.00;;
17844;SDS011;9047;53.486;10.218;2024-02-23T07:11:40;4.45;;;2.03;;
17844;SDS011;9047;53.486;10.218;2024-02-23T07:14:13;4.35;;;1.80;;
17844;SDS011;9047;53.486;10.218;2024-02-23T07:16:42;5.20;;;2.15;;
17844;SDS011;9047;53.486;10.218;2024-02-23T07:19:09;6.18;;;2.15;;
17844;SDS011;9047;53.486;10.218;2024-02-23T07:21:37;7.13;;;2.28;;
17844;SDS011;9047;53.486;10.218;2024-02-23T07:24:05;5.30;;;2.38;;
17844;SDS011;9047;53.486;10.218;2024-02-23T07:26:35;8.07;;;2.10;;
17844;SDS011;9047;53.486;10.218;2024-02-23T07:29:05;3.47;;;2.00;;
17844;SDS011;9047;53.486;10.218;2024-02-23T07:31:34;3.47;;;1.90;;
17844;SDS011;9047;53.486;10.218;2024-02-23T07:34:02;5.57;;;2.20;;
17844;SDS011;9047;53.486;10.218;2024-02-23T07:36:29;5.70;;;1.83;;
17844;SDS011;9047;53.486;10.218;2024-02-23T07:39:00;4.28;;;1.80;;
17844;SDS011;9047;53.486;10.218;2024-02-23T07:41:27;4.55;;;1.85;;
17844;SDS011;9047;53.486;10.218;2024-02-23T07:43:54;6.45;;;2.00;;
17844;SDS011;9047;53.486;10.218;2024-02-23T07:46:23;6.35;;;1.70;;
17844;SDS011;9047;53.486;10.218;2024-02-23T07:49:33;4.38;;;1.55;;
17844;SDS011;9047;53.486;10.218;2024-02-23T07:52:02;5.07;;;1.83;;
17844;SDS011;9047;53.486;10.218;2024-02-23T07:54:55;3.80;;;1.40;;
17844;SDS011;9047;53.486;10.218;2024-02-23T07:57:43;4.25;;;1.67;;
17844;SDS011;9047;53.486;10.218;2024-02-23T08:00:48;6.90;;;1.83;;
17844;SDS011;9047;53.486;10.218;2024-02-23T08:03:26;3.75;;;1.60;;
17844;SDS011;9047;53.486;10.218;2024-02-23T08:05:59;3.58;;;1.58;;
17844;SDS011;9047;53.486;10.218;2024-02-23T08:08:32;4.18;;;1.50;;
17844;SDS011;9047;53.486;10.218;2024-02-23T08:11:04;3.50;;;1.40;;
17844;SDS011;9047;53.486;10.218;2024-02-23T08:13:44;3.20;;;1.48;;
17844;SDS011;9047;53.486;10.218;2024-02-23T08:16:15;5.55;;;1.42;;
17844;SDS011;9047;53.486;10.218;2024-02-23T08:18:54;4.95;;;1.67;;
17844;SDS011;9047;53.486;10.218;2024-02-23T08:21:24;3.00;;;1.48;;
17844;SDS011;9047;53.486;10.218;2024-02-23T08:24:01;3.25;;;1.38;;
17844;SDS011;9047;53.486;10.218;2024-02-23T08:26:34;4.82;;;1.60;;
17844;SDS011;9047;53.486;10.218;2024-02-23T08:29:14;2.85;;;1.30;;
17844;SDS011;9047;53.486;10.218;2024-02-23T08:31:44;5.28;;;1.55;;
17844;SDS011;9047;53.486;10.218;2024-02-23T08:34:17;4.78;;;1.40;;
17844;SDS011;9047;53.486;10.218;2024-02-23T08:36:50;6.55;;;1.55;;
17844;SDS011;9047;53.486;10.218;2024-02-23T08:39:20;4.35;;;1.50;;
17844;SDS011;9047;53.486;10.218;2024-02-23T08:41:47;3.60;;;1.60;;
17844;SDS011;9047;53.486;10.218;2024-02-23T08:44:19;4.95;;;1.50;;
17844;SDS011;9047;53.486;10.218;2024-02-23T08:46:48;4.40;;;1.30;;
17844;SDS011;9047;53.486;10.218;2024-02-23T08:49:25;5.95;;;1.75;;
17844;SDS011;9047;53.486;10.218;2024-02-23T08:51:54;3.63;;;1.33;;
17844;SDS011;9047;53.486;10.218;2024-02-23T08:54:25;4.50;;;1.33;;
17844;SDS011;9047;53.486;10.218;2024-02-23T08:56:56;4.78;;;1.85;;
17844;SDS011;9047;53.486;10.218;2024-02-23T08:59:27;5.57;;;1.63;;
17844;SDS011;9047;53.486;10.218;2024-02-23T09:02:00;4.45;;;1.42;;
17844;SDS011;9047;53.486;10.218;2024-02-23T09:04:30;4.00;;;1.45;;
17844;SDS011;9047;53.486;10.218;2024-02-23T09:06:59;4.47;;;1.13;;
17844;SDS011;9047;53.486;10.218;2024-02-23T09:09:26;5.18;;;1.50;;
17844;SDS011;9047;53.486;10.218;2024-02-23T09:11:56;4.88;;;1.58;;
17844;SDS011;9047;53.486;10.218;2024-02-23T09:14:27;6.53;;;1.65;;
17844;SDS011;9047;53.486;10.218;2024-02-23T09:16:56;7.20;;;2.05;;
17844;SDS011;9047;53.486;10.218;2024-02-23T09:19:23;4.78;;;1.40;;
17844;SDS011;9047;53.486;10.218;2024-02-23T09:21:56;5.68;;;1.40;;
17844;SDS011;9047;53.486;10.218;2024-02-23T09:24:29;3.55;;;1.20;;
17844;SDS011;9047;53.486;10.218;2024-02-23T09:26:56;5.63;;;1.50;;
17844;SDS011;9047;53.486;10.218;2024-02-23T09:29:24;5.53;;;1.50;;
17844;SDS011;9047;53.486;10.218;2024-02-23T09:31:56;3.40;;;1.33;;
17844;SDS011;9047;53.486;10.218;2024-02-23T09:34:23;3.88;;;1.42;;
17844;SDS011;9047;53.486;10.218;2024-02-23T09:36:52;5.10;;;1.50;;
17844;SDS011;9047;53.486;10.218;2024-02-23T09:39:21;7.47;;;1.55;;
17844;SDS011;9047;53.486;10.218;2024-02-23T09:41:51;5.72;;;1.23;;
17844;SDS011;9047;53.486;10.218;2024-02-23T09:44:20;4.60;;;1.27;;
17844;SDS011;9047;53.486;10.218;2024-02-23T09:46:48;5.45;;;1.58;;
17844;SDS011;9047;53.486;10.218;2024-02-23T09:49:15;6.20;;;1.70;;
17844;SDS011;9047;53.486;10.218;2024-02-23T09:51:42;6.22;;;1.55;;
17844;SDS011;9047;53.486;10.218;2024-02-23T09:54:09;3.80;;;1.38;;
17844;SDS011;9047;53.486;10.218;2024-02-23T09:56:38;5.47;;;1.35;;
17844;SDS011;9047;53.486;10.218;2024-02-23T09:59:06;6.70;;;1.50;;
17844;SDS011;9047;53.486;10.218;2024-02-23T10:01:33;6.13;;;1.67;;
17844;SDS011;9047;53.486;10.218;2024-02-23T10:04:02;3.15;;;1.58;;
17844;SDS011;9047;53.486;10.218;2024-02-23T10:06:31;5.82;;;1.30;;
17844;SDS011;9047;53.486;10.218;2024-02-23T10:09:02;8.40;;;2.00;;
17844;SDS011;9047;53.486;10.218;2024-02-23T10:11:30;6.03;;;1.60;;
17844;SDS011;9047;53.486;10.218;2024-02-23T10:17:21;6.03;;;1.50;;
17844;SDS011;9047;53.486;10.218;2024-02-23T10:19:48;4.63;;;1.30;;
17844;SDS011;9047;53.486;10.218;2024-02-23T10:22:15;5.72;;;1.40;;
17844;SDS011;9047;53.486;10.218;2024-02-23T10:24:42;7.35;;;1.60;;
17844;SDS011;9047;53.486;10.218;2024-02-23T10:27:09;5.00;;;1.25;;
17844;SDS011;9047;53.486;10.218;2024-02-23T10:29:36;8.50;;;1.30;;
17844;SDS011;9047;53.486;10.218;2024-02-23T10:32:03;4.13;;;1.52;;
17844;SDS011;9047;53.486;10.218;2024-02-23T10:34:37;6.68;;;1.40;;
17844;SDS011;9047;53.486;10.218;2024-02-23T10:37:05;6.28;;;1.40;;
17844;SDS011;9047;53.486;10.218;2024-02-23T10:39:33;5.32;;;1.40;;
17844;SDS011;9047;53.486;10.218;2024-02-23T10:42:03;3.45;;;1.20;;
17844;SDS011;9047;53.486;10.218;2024-02-23T10:44:33;4.20;;;1.42;;
17844;SDS011;9047;53.486;10.218;2024-02-23T10:47:02;6.18;;;1.20;;
17844;SDS011;9047;53.486;10.218;2024-02-23T10:49:30;5.18;;;1.45;;
17844;SDS011;9047;53.486;10.218;2024-02-23T10:52:00;3.28;;;1.15;;
17844;SDS011;9047;53.486;10.218;2024-02-23T10:54:31;4.88;;;1.20;;
17844;SDS011;9047;53.486;10.218;2024-02-23T10:57:00;4.18;;;1.02;;
17844;SDS011;9047;53.486;10.218;2024-02-23T10:59:28;2.47;;;1.00;;
17844;SDS011;9047;53.486;10.218;2024-02-23T11:01:55;5.72;;;1.55;;
17844;SDS011;9047;53.486;10.218;2024-02-23T11:04:27;6.70;;;1.13;;
17844;SDS011;9047;53.486;10.218;2024-02-23T11:06:58;4.93;;;1.20;;
17844;SDS011;9047;53.486;10.218;2024-02-23T11:09:34;4.43;;;1.02;;
17844;SDS011;9047;53.486;10.218;2024-02-23T11:12:03;4.55;;;1.10;;
17844;SDS011;9047;53.486;10.218;2024-02-23T11:14:31;6.47;;;1.27;;
17844;SDS011;9047;53.486;10.218;2024-02-23T11:17:02;5.82;;;1.30;;
17844;SDS011;9047;53.486;10.218;2024-02-23T11:19:32;5.35;;;1.15;;
17844;SDS011;9047;53.486;10.218;2024-02-23T11:22:00;5.03;;;1.20;;
17844;SDS011;9047;53.486;10.218;2024-02-23T11:24:28;5.50;;;1.20;;
17844;SDS011;9047;53.486;10.218;2024-02-23T11:26:59;4.07;;;1.00;;
17844;SDS011;9047;53.486;10.218;2024-02-23T11:29:33;4.43;;;1.35;;
17844;SDS011;9047;53.486;10.218;2024-02-23T11:32:11;6.50;;;1.20;;
17844;SDS011;9047;53.486;10.218;2024-02-23T11:34:39;4.43;;;1.35;;
17844;SDS011;9047;53.486;10.218;2024-02-23T11:37:07;6.10;;;1.20;;
17844;SDS011;9047;53.486;10.218;2024-02-23T11:39:37;4.03;;;1.40;;
17844;SDS011;9047;53.486;10.218;2024-02-23T11:42:07;4.35;;;1.10;;
17844;SDS011;9047;53.486;10.218;2024-02-23T11:44:37;2.80;;;1.10;;
17844;SDS011;9047;53.486;10.218;2024-02-23T11:47:07;4.18;;;1.15;;
17844;SDS011;9047;53.486;10.218;2024-02-23T11:49:36;3.33;;;1.20;;
17844;SDS011;9047;53.486;10.218;2024-02-23T11:52:04;4.55;;;1.17;;
17844;SDS011;9047;53.486;10.218;2024-02-23T11:54:31;2.55;;;1.10;;
17844;SDS011;9047;53.486;10.218;2024-02-23T11:56:59;2.22;;;1.15;;
17844;SDS011;9047;53.486;10.218;2024-02-23T11:59:29;3.75;;;1.05;;
17844;SDS011;9047;53.486;10.218;2024-02-23T12:01:56;4.38;;;1.13;;
17844;SDS011;9047;53.486;10.218;2024-02-23T12:04:26;4.45;;;1.00;;
17844;SDS011;9047;53.486;10.218;2024-02-23T12:06:54;3.28;;;1.00;;
17844;SDS011;9047;53.486;10.218;2024-02-23T12:09:22;2.92;;;1.30;;
17844;SDS011;9047;53.486;10.218;2024-02-23T12:11:49;2.97;;;1.23;;
17844;SDS011;9047;53.486;10.218;2024-02-23T12:14:17;4.22;;;1.20;;
17844;SDS011;9047;53.486;10.218;2024-02-23T12:16:46;1.95;;;0.82;;
17844;SDS011;9047;53.486;10.218;2024-02-23T12:19:14;3.33;;;1.05;;
17844;SDS011;9047;53.486;10.218;2024-02-23T12:21:44;3.85;;;1.17;;
17844;SDS011;9047;53.486;10.218;2024-02-23T12:24:12;6.47;;;1.00;;
17844;SDS011;9047;53.486;10.218;2024-02-23T12:26:39;2.38;;;0.90;;
17844;SDS011;9047;53.486;10.218;2024-02-23T12:29:06;4.75;;;1.20;;
17844;SDS011;9047;53.486;10.218;2024-02-23T12:31:33;3.72;;;1.27;;
17844;SDS011;9047;53.486;10.218;2024-02-23T12:34:02;2.47;;;1.00;;
17844;SDS011;9047;53.486;10.218;2024-02-23T12:36:30;2.83;;;1.20;;
17844;SDS011;9047;53.486;10.218;2024-02-23T12:39:00;2.53;;;1.00;;
17844;SDS011;9047;53.486;10.218;2024-02-23T12:41:26;2.25;;;1.10;;
17844;SDS011;9047;53.486;10.218;2024-02-23T12:43:53;1.58;;;1.02;;
17844;SDS011;9047;53.486;10.218;2024-02-23T12:46:20;4.60;;;1.20;;
17844;SDS011;9047;53.486;10.218;2024-02-23T12:48:48;1.75;;;1.00;;
17844;SDS011;9047;53.486;10.218;2024-02-23T12:51:17;3.97;;;1.00;;
17844;SDS011;9047;53.486;10.218;2024-02-23T12:53:46;3.25;;;1.00;;
17844;SDS011;9047;53.486;10.218;2024-02-23T12:56:13;2.90;;;1.10;;
17844;SDS011;9047;53.486;10.218;2024-02-23T12:58:41;2.40;;;1.00;;
17844;SDS011;9047;53.486;10.218;2024-02-23T13:01:15;2.83;;;1.10;;
17844;SDS011;9047;53.486;10.218;2024-02-23T13:03:42;2.28;;;1.10;;
17844;SDS011;9047;53.486;10.218;2024-02-23T13:06:09;1.95;;;0.90;;
17844;SDS011;9047;53.486;10.218;2024-02-23T13:08:39;1.92;;;0.80;;
17844;SDS011;9047;53.486;10.218;2024-02-23T13:11:08;1.60;;;1.00;;
17844;SDS011;9047;53.486;10.218;2024-02-23T13:13:35;3.70;;;1.00;;
17844;SDS011;9047;53.486;10.218;2024-02-23T13:16:02;2.35;;;0.98;;
17844;SDS011;9047;53.486;10.218;2024-02-23T13:18:30;1.45;;;0.80;;
17844;SDS011;9047;53.486;10.218;2024-02-23T13:20:57;2.58;;;1.00;;
17844;SDS011;9047;53.486;10.218;2024-02-23T13:23:24;2.97;;;0.90;;
17844;SDS011;9047;53.486;10.218;2024-02-23T13:25:57;2.08;;;0.80;;
17844;SDS011;9047;53.486;10.218;2024-02-23T13:28:28;2.05;;;0.80;;
17844;SDS011;9047;53.486;10.218;2024-02-23T13:30:56;2.20;;;0.70;;
17844;SDS011;9047;53.486;10.218;2024-02-23T13:33:24;2.10;;;0.70;;
17844;SDS011;9047;53.486;10.218;2024-02-23T13:35:51;2.72;;;1.00;;
17844;SDS011;9047;53.486;10.218;2024-02-23T13:38:18;2.17;;;0.80;;
17844;SDS011;9047;53.486;10.218;2024-02-23T13:40:47;2.55;;;0.82;;
17844;SDS011;9047;53.486;10.218;2024-02-23T13:46:01;2.28;;;0.77;;
17844;SDS011;9047;53.486;10.218;2024-02-23T13:48:29;4.03;;;1.00;;
17844;SDS011;9047;53.486;10.218;2024-02-23T13:51:01;3.40;;;0.80;;
17844;SDS011;9047;53.486;10.218;2024-02-23T13:53:30;3.42;;;1.10;;
17844;SDS011;9047;53.486;10.218;2024-02-23T13:56:00;1.90;;;0.80;;
17844;SDS011;9047;53.486;10.218;2024-02-23T13:58:30;2.03;;;0.90;;
17844;SDS011;9047;53.486;10.218;2024-02-23T14:00:59;4.93;;;0.80;;
17844;SDS011;9047;53.486;10.218;2024-02-23T14:06:09;2.45;;;0.80;;
17844;SDS011;9047;53.486;10.218;2024-02-23T14:08:40;3.03;;;0.80;;
17844;SDS011;9047;53.486;10.218;2024-02-23T14:11:09;2.72;;;1.00;;
17844;SDS011;9047;53.486;10.218;2024-02-23T14:13:40;3.90;;;1.20;;
17844;SDS011;9047;53.486;10.218;2024-02-23T14:16:17;2.65;;;1.30;;
17844;SDS011;9047;53.486;10.218;2024-02-23T14:18:47;2.35;;;1.10;;
17844;SDS011;9047;53.486;10.218;2024-02-23T14:21:17;5.60;;;1.10;;
17844;SDS011;9047;53.486;10.218;2024-02-23T14:23:48;3.30;;;0.90;;
17844;SDS011;9047;53.486;10.218;2024-02-23T14:26:16;2.33;;;0.88;;
17844;SDS011;9047;53.486;10.218;2024-02-23T14:28:49;3.28;;;1.00;;
17844;SDS011;9047;53.486;10.218;2024-02-23T14:31:23;1.92;;;0.85;;
17844;SDS011;9047;53.486;10.218;2024-02-23T14:33:52;4.50;;;0.90;;
17844;SDS011;9047;53.486;10.218;2024-02-23T14:36:24;2.30;;;0.95;;
17844;SDS011;9047;53.486;10.218;2024-02-23T14:38:55;2.60;;;1.10;;
17844;SDS011;9047;53.486;10.218;2024-02-23T14:41:22;3.28;;;1.20;;
17844;SDS011;9047;53.486;10.218;2024-02-23T14:43:52;4.30;;;1.30;;
17844;SDS011;9047;53.486;10.218;2024-02-23T14:46:21;3.17;;;1.00;;
17844;SDS011;9047;53.486;10.218;2024-02-23T14:48:48;3.33;;;1.20;;
17844;SDS011;9047;53.486;10.218;2024-02-23T14:51:16;2.50;;;1.05;;
17844;SDS011;9047;53.486;10.218;2024-02-23T14:53:46;3.95;;;1.20;;
17844;SDS011;9047;53.486;10.218;2024-02-23T14:56:15;2.90;;;1.10;;
17844;SDS011;9047;53.486;10.218;2024-02-23T14:58:42;2.53;;;1.05;;
17844;SDS011;9047;53.486;10.218;2024-02-23T15:01:15;3.40;;;1.40;;
17844;SDS011;9047;53.486;10.218;2024-02-23T15:03:47;7.30;;;3.63;;
17844;SDS011;9047;53.486;10.218;2024-02-23T15:06:14;2.35;;;1.08;;